createdAt,value
2023-12-30T00:03:24.259Z,2.37
2023-12-30T00:07:29.115Z,1.80
2023-12-30T00:11:34.343Z,1.83
2023-12-30T00:15:42.301Z,1.77
2023-12-30T00:19:48.267Z,2.30
2023-12-30T00:23:53.138Z,2.00
2023-12-30T00:27:58.619Z,1.80
2023-12-30T00:32:06.549Z,2.40
2023-12-30T00:36:17.257Z,2.07
2023-12-30T00:40:26.709Z,2.27
2023-12-30T00:44:32.971Z,2.53
2023-12-30T00:48:40.707Z,2.10
2023-12-30T00:52:45.760Z,2.20
2023-12-30T00:56:51.785Z,2.20
2023-12-30T01:00:57.334Z,2.03
2023-12-30T01:05:05.487Z,3.07
2023-12-30T01:09:13.164Z,2.47
2023-12-30T01:13:19.750Z,2.30
2023-12-30T01:17:24.923Z,2.00
2023-12-30T01:21:33.540Z,2.57
2023-12-30T01:25:40.110Z,2.37
2023-12-30T01:29:45.257Z,2.47
2023-12-30T01:33:50.567Z,2.70
2023-12-30T01:37:58.160Z,2.50
2023-12-30T01:42:03.056Z,2.40
2023-12-30T01:46:11.158Z,2.20
2023-12-30T01:50:16.540Z,2.47
2023-12-30T01:54:26.128Z,2.50
2023-12-30T01:58:32.826Z,2.43
2023-12-30T02:02:37.751Z,2.33
2023-12-30T02:06:43.320Z,2.33
2023-12-30T02:10:51.024Z,2.00
2023-12-30T02:14:55.965Z,2.17
2023-12-30T02:19:00.971Z,2.70
2023-12-30T02:23:08.769Z,2.30
2023-12-30T02:27:16.160Z,2.20
2023-12-30T02:31:21.244Z,2.40
2023-12-30T02:35:28.846Z,2.60
2023-12-30T02:39:36.841Z,2.43
2023-12-30T02:43:56.723Z,2.63
2023-12-30T02:48:01.862Z,2.23
2023-12-30T02:52:11.860Z,2.47
2023-12-30T02:56:27.739Z,2.53
2023-12-30T03:00:32.873Z,2.70
2023-12-30T03:04:43.028Z,2.77
2023-12-30T03:08:48.323Z,3.13
2023-12-30T03:12:55.814Z,2.83
2023-12-30T03:17:00.847Z,2.37
2023-12-30T03:21:08.533Z,3.20
2023-12-30T03:25:14.433Z,3.23
2023-12-30T03:29:21.983Z,2.70
2023-12-30T03:33:27.251Z,2.90
2023-12-30T03:37:32.470Z,3.20
2023-12-30T03:41:38.112Z,3.17
2023-12-30T03:45:46.584Z,3.13
2023-12-30T03:49:51.524Z,3.00
2023-12-30T03:53:56.739Z,3.03
2023-12-30T03:58:01.856Z,2.80
2023-12-30T04:02:09.529Z,3.17
2023-12-30T04:06:24.104Z,3.20
2023-12-30T04:10:29.029Z,3.57
2023-12-30T04:14:34.036Z,2.83
2023-12-30T04:18:42.576Z,2.73
2023-12-30T04:22:48.020Z,3.43
2023-12-30T04:26:53.275Z,2.80
2023-12-30T04:30:58.453Z,3.63
2023-12-30T04:35:06.053Z,2.80
2023-12-30T04:39:11.702Z,3.30
2023-12-30T04:43:16.755Z,2.60
2023-12-30T04:47:21.990Z,3.10
2023-12-30T04:51:29.381Z,2.70
2023-12-30T04:55:36.079Z,2.90
2023-12-30T04:59:40.969Z,2.70
2023-12-30T05:03:46.077Z,2.63
2023-12-30T05:07:53.675Z,2.70
2023-12-30T05:11:58.581Z,3.13
2023-12-30T05:16:04.533Z,2.90
2023-12-30T05:20:11.797Z,3.13
2023-12-30T05:24:20.006Z,3.10
2023-12-30T05:28:24.992Z,2.67
2023-12-30T05:32:30.491Z,3.00
2023-12-30T05:36:35.380Z,2.60
2023-12-30T05:40:43.874Z,2.80
2023-12-30T05:44:48.805Z,2.93
2023-12-30T05:48:54.028Z,3.93
2023-12-30T05:53:00.348Z,3.60
2023-12-30T05:57:08.224Z,3.47
2023-12-30T06:01:14.350Z,3.20
2023-12-30T06:05:19.245Z,3.63
2023-12-30T06:09:24.285Z,3.40
2023-12-30T06:13:33.414Z,3.57
2023-12-30T06:17:38.750Z,3.73
2023-12-30T06:21:43.571Z,3.87
2023-12-30T06:25:48.569Z,3.57
2023-12-30T06:29:56.297Z,3.67
2023-12-30T06:34:01.687Z,4.10
2023-12-30T06:38:07.195Z,4.00
2023-12-30T06:42:12.016Z,4.13
2023-12-30T06:46:22.274Z,4.50
2023-12-30T06:50:27.471Z,4.70
2023-12-30T06:54:32.240Z,5.10
2023-12-30T06:58:37.710Z,4.43
2023-12-30T07:02:45.869Z,4.60
2023-12-30T07:06:51.529Z,4.53
2023-12-30T07:10:56.642Z,5.27
2023-12-30T07:15:02.119Z,4.23
2023-12-30T07:19:09.837Z,4.47
2023-12-30T07:23:15.080Z,5.10
2023-12-30T07:27:19.950Z,5.07
2023-12-30T07:31:25.120Z,4.80
2023-12-30T07:35:32.644Z,6.07
2023-12-30T07:39:37.859Z,4.50
2023-12-30T07:43:42.982Z,4.43
2023-12-30T07:47:47.994Z,5.23
2023-12-30T07:51:55.586Z,4.40
2023-12-30T07:56:01.291Z,6.20
2023-12-30T08:00:06.428Z,4.80
2023-12-30T08:04:17.178Z,5.03
2023-12-30T08:08:25.000Z,4.70
2023-12-30T08:12:29.952Z,4.33
2023-12-30T08:16:34.796Z,4.43
2023-12-30T08:20:39.740Z,4.50
2023-12-30T08:24:47.174Z,4.40
2023-12-30T08:28:52.341Z,5.17
2023-12-30T08:32:58.010Z,4.50
2023-12-30T08:37:09.677Z,4.90
2023-12-30T08:41:20.907Z,4.63
2023-12-30T08:45:26.047Z,5.30
2023-12-30T08:49:31.105Z,5.33
2023-12-30T08:53:36.206Z,5.73
2023-12-30T08:57:44.561Z,3.93
2023-12-30T09:01:50.499Z,3.90
2023-12-30T09:05:55.567Z,6.17
2023-12-30T09:10:00.742Z,4.20
2023-12-30T09:14:08.925Z,3.80
2023-12-30T09:18:15.433Z,4.40
2023-12-30T09:22:20.606Z,4.07
2023-12-30T09:26:25.416Z,4.50
2023-12-30T09:30:33.222Z,4.53
2023-12-30T09:34:42.104Z,4.90
2023-12-30T09:38:49.160Z,4.23
2023-12-30T09:42:55.063Z,4.60
2023-12-30T09:47:08.200Z,6.63
2023-12-30T09:51:14.386Z,5.43
2023-12-30T09:55:19.261Z,4.90
2023-12-30T09:59:24.712Z,4.70
2023-12-30T10:03:32.591Z,4.93
2023-12-30T10:07:39.370Z,4.47
2023-12-30T10:11:45.093Z,5.37
2023-12-30T10:15:50.461Z,5.43
2023-12-30T10:19:58.328Z,4.73
2023-12-30T10:24:05.779Z,6.40
2023-12-30T10:28:10.828Z,4.20
2023-12-30T10:32:15.753Z,5.10
2023-12-30T10:36:23.564Z,4.30
2023-12-30T10:40:28.966Z,6.33
2023-12-30T10:44:34.035Z,7.03
2023-12-30T10:48:57.147Z,5.07
2023-12-30T10:53:09.854Z,5.50
2023-12-30T10:57:21.962Z,5.00
2023-12-30T11:01:29.273Z,5.00
2023-12-30T11:05:38.495Z,4.90
2023-12-30T11:09:46.861Z,4.93
2023-12-30T11:13:52.301Z,4.37
2023-12-30T11:17:57.927Z,5.77
2023-12-30T11:22:04.871Z,6.13
2023-12-30T11:26:16.295Z,12.77
2023-12-30T11:30:27.579Z,7.27
2023-12-30T11:34:33.144Z,8.13
2023-12-30T11:38:41.738Z,6.40
2023-12-30T11:42:49.430Z,6.57
2023-12-30T11:46:55.078Z,6.37
2023-12-30T11:51:00.409Z,6.60
2023-12-30T11:55:06.423Z,6.23
2023-12-30T11:59:15.782Z,5.60
2023-12-30T12:03:20.798Z,5.60
2023-12-30T12:07:25.996Z,6.37
2023-12-30T12:11:32.689Z,7.10
2023-12-30T12:15:41.165Z,7.37
2023-12-30T12:19:46.638Z,7.83
2023-12-30T12:23:51.841Z,8.57
2023-12-30T12:27:57.850Z,15.87
2023-12-30T12:32:08.197Z,7.20
2023-12-30T12:36:13.542Z,9.40
2023-12-30T12:40:19.923Z,7.07
2023-12-30T12:44:25.151Z,7.07
2023-12-30T12:48:32.953Z,9.47
2023-12-30T12:52:38.816Z,7.03
2023-12-30T12:56:44.284Z,9.33
2023-12-30T13:00:51.491Z,6.70
2023-12-30T13:04:59.406Z,6.30
2023-12-30T13:09:22.644Z,6.60
2023-12-30T13:13:29.518Z,6.93
2023-12-30T13:17:35.246Z,7.50
2023-12-30T13:21:43.229Z,7.63
2023-12-30T13:26:00.227Z,7.53
2023-12-30T13:30:10.848Z,8.50
2023-12-30T13:34:17.411Z,8.50
2023-12-30T13:38:29.181Z,8.67
2023-12-30T13:42:34.017Z,8.60
2023-12-30T13:46:58.553Z,9.00
2023-12-30T13:51:13.428Z,7.80
2023-12-30T13:55:23.488Z,8.07
2023-12-30T13:59:28.757Z,8.57
2023-12-30T14:03:34.025Z,8.20
2023-12-30T14:07:39.021Z,9.63
2023-12-30T14:11:52.964Z,8.40
2023-12-30T14:15:59.046Z,8.40
2023-12-30T14:20:05.918Z,7.67
2023-12-30T14:24:16.804Z,7.77
2023-12-30T14:28:25.410Z,7.53
2023-12-30T14:32:30.522Z,7.27
2023-12-30T14:36:35.693Z,7.50
2023-12-30T14:40:40.781Z,8.30
2023-12-30T14:44:48.793Z,7.07
2023-12-30T14:48:54.385Z,14.70
2023-12-30T14:52:59.290Z,8.90
2023-12-30T14:57:04.936Z,7.67
2023-12-30T15:01:12.595Z,7.97
2023-12-30T15:05:17.794Z,14.60
2023-12-30T15:09:23.245Z,11.97
2023-12-30T15:13:28.569Z,10.00
2023-12-30T15:17:36.583Z,10.47
2023-12-30T15:21:41.813Z,8.50
2023-12-30T15:25:48.501Z,12.33
2023-12-30T15:29:53.629Z,12.90
2023-12-30T15:34:01.476Z,12.13
2023-12-30T15:38:07.039Z,7.90
2023-12-30T15:42:12.125Z,8.43
2023-12-30T15:46:17.723Z,12.10
2023-12-30T15:50:25.777Z,6.30
2023-12-30T15:54:30.922Z,6.67
2023-12-30T15:58:36.193Z,7.60
2023-12-30T16:02:41.246Z,12.10
2023-12-30T16:06:49.143Z,15.30
2023-12-30T16:10:54.917Z,13.97
2023-12-30T16:15:00.944Z,10.67
2023-12-30T16:19:06.296Z,7.57
2023-12-30T16:23:13.848Z,6.70
2023-12-30T16:27:18.882Z,7.13
2023-12-30T16:31:25.176Z,5.00
2023-12-30T16:35:30.373Z,4.97
2023-12-30T16:39:38.714Z,6.53
2023-12-30T16:43:43.812Z,6.83
2023-12-30T16:47:48.953Z,5.43
2023-12-30T16:51:54.055Z,5.40
2023-12-30T16:56:02.989Z,9.90
2023-12-30T17:00:10.482Z,8.37
2023-12-30T17:04:15.771Z,4.97
2023-12-30T17:08:22.985Z,6.13
2023-12-30T17:12:31.000Z,11.97
2023-12-30T17:16:36.339Z,9.67
2023-12-30T17:20:47.230Z,7.07
2023-12-30T17:24:53.589Z,9.03
2023-12-30T17:29:01.087Z,4.60
2023-12-30T17:33:07.346Z,17.23
2023-12-30T17:37:12.872Z,4.67
2023-12-30T17:41:18.614Z,5.53
2023-12-30T17:45:27.854Z,3.77
2023-12-30T17:49:33.475Z,6.27
2023-12-30T17:53:38.545Z,4.10
2023-12-30T17:57:43.879Z,6.63
2023-12-30T18:01:53.185Z,5.17
2023-12-30T18:05:58.934Z,4.00
2023-12-30T18:10:04.452Z,4.57
2023-12-30T18:14:26.206Z,5.90
2023-12-30T18:18:42.872Z,5.50
2023-12-30T18:22:53.768Z,4.57
2023-12-30T18:26:58.796Z,3.57
2023-12-30T18:31:05.368Z,5.70
2023-12-30T18:35:13.830Z,8.40
2023-12-30T18:39:19.406Z,5.57
2023-12-30T18:43:24.681Z,4.73
2023-12-30T18:47:30.643Z,6.83
2023-12-30T18:51:38.785Z,11.50
2023-12-30T18:55:45.124Z,7.30
2023-12-30T18:59:50.260Z,7.60
2023-12-30T19:03:57.827Z,8.17
2023-12-30T19:08:06.900Z,6.47
2023-12-30T19:12:12.365Z,5.40
2023-12-30T19:16:17.531Z,10.60
2023-12-30T19:20:38.570Z,6.30
2023-12-30T19:24:52.225Z,9.83
2023-12-30T19:29:04.472Z,11.27
2023-12-30T19:33:21.750Z,11.43
2023-12-30T19:37:37.860Z,8.97
2023-12-30T19:41:45.878Z,7.73
2023-12-30T19:45:51.254Z,6.90
2023-12-30T19:49:58.094Z,8.27
2023-12-30T19:54:04.253Z,5.83
2023-12-30T19:58:12.467Z,8.03
2023-12-30T20:02:17.630Z,6.33
2023-12-30T20:06:22.789Z,4.07
2023-12-30T20:10:27.704Z,4.30
2023-12-30T20:14:36.660Z,3.33
2023-12-30T20:18:45.493Z,5.93
2023-12-30T20:22:51.968Z,6.93
2023-12-30T20:26:58.618Z,11.40
2023-12-30T20:31:07.085Z,12.53
2023-12-30T20:35:12.598Z,8.60
2023-12-30T20:39:17.796Z,6.40
2023-12-30T20:43:22.675Z,4.90
2023-12-30T20:47:30.483Z,6.57
2023-12-30T20:51:35.882Z,4.37
2023-12-30T20:55:41.053Z,3.97
2023-12-30T20:59:47.398Z,3.90
2023-12-30T21:03:55.574Z,4.47
2023-12-30T21:08:02.058Z,8.97
2023-12-30T21:12:12.727Z,16.47
2023-12-30T21:16:28.309Z,3.80
2023-12-30T21:20:45.369Z,3.30
2023-12-30T21:24:51.031Z,5.60
2023-12-30T21:28:56.398Z,9.57
2023-12-30T21:33:02.450Z,3.83
2023-12-30T21:37:10.677Z,8.13
2023-12-30T21:41:24.122Z,4.90
2023-12-30T21:45:31.401Z,4.80
2023-12-30T21:49:40.786Z,3.80
2023-12-30T21:53:48.943Z,4.50
2023-12-30T21:58:04.125Z,2.93
2023-12-30T22:02:23.140Z,3.10
2023-12-30T22:06:40.431Z,6.67
2023-12-30T22:10:47.905Z,4.93
2023-12-30T22:14:56.465Z,4.83
2023-12-30T22:19:28.266Z,3.37
2023-12-30T22:23:44.324Z,7.30
2023-12-30T22:28:06.103Z,8.10
2023-12-30T22:32:24.189Z,3.70
2023-12-30T22:36:37.167Z,3.50
2023-12-30T22:40:47.248Z,5.50
2023-12-30T22:45:09.251Z,7.50
2023-12-30T22:49:29.489Z,2.87
2023-12-30T22:53:45.153Z,2.80
2023-12-30T22:57:52.161Z,2.93
2023-12-30T23:01:59.968Z,2.80
2023-12-30T23:06:04.907Z,3.30
2023-12-30T23:10:12.791Z,7.13
2023-12-30T23:14:19.187Z,5.23
2023-12-30T23:18:26.977Z,2.40
2023-12-30T23:22:41.036Z,2.67
2023-12-30T23:26:47.019Z,3.60
2023-12-30T23:30:55.121Z,3.77
2023-12-30T23:35:14.015Z,3.00
2023-12-30T23:39:25.292Z,2.60
2023-12-30T23:43:30.182Z,3.70
2023-12-30T23:47:35.769Z,3.50
2023-12-30T23:51:44.704Z,4.40
2023-12-30T23:55:50.867Z,4.30
2023-12-30T23:59:56.976Z,3.57
